createdAt,value
2023-11-30T00:01:14.113Z,10.67
2023-11-30T00:03:41.047Z,11.60
2023-11-30T00:06:08.488Z,11.07
2023-11-30T00:08:38.223Z,10.60
2023-11-30T00:13:37.157Z,10.93
2023-11-30T00:16:04.052Z,10.97
2023-11-30T00:18:30.722Z,11.27
2023-11-30T00:20:57.607Z,10.70
2023-11-30T00:23:24.222Z,10.30
2023-11-30T00:25:51.084Z,11.17
2023-11-30T00:28:17.933Z,11.57
2023-11-30T00:30:44.777Z,10.97
2023-11-30T00:33:11.701Z,10.37
2023-11-30T00:35:38.384Z,11.10
2023-11-30T00:38:04.980Z,11.60
2023-11-30T00:40:31.797Z,11.57
2023-11-30T00:42:58.515Z,11.93
2023-11-30T00:45:25.518Z,11.07
2023-11-30T00:47:52.364Z,10.63
2023-11-30T00:50:19.067Z,10.73
2023-11-30T00:52:45.894Z,10.57
2023-11-30T00:55:12.481Z,10.40
2023-11-30T00:57:39.694Z,10.73
2023-11-30T01:00:10.033Z,10.47
2023-11-30T01:02:37.125Z,10.47
2023-11-30T01:05:03.822Z,10.97
2023-11-30T01:07:30.422Z,10.57
2023-11-30T01:09:57.226Z,10.60
2023-11-30T01:12:23.846Z,10.20
2023-11-30T01:14:52.953Z,11.00
2023-11-30T01:17:19.669Z,10.80
2023-11-30T01:19:46.317Z,10.53
2023-11-30T01:22:13.632Z,10.03
2023-11-30T01:24:40.459Z,10.20
2023-11-30T01:27:09.676Z,10.43
2023-11-30T01:29:36.307Z,9.90
2023-11-30T01:32:03.388Z,11.00
2023-11-30T01:34:30.226Z,11.17
2023-11-30T01:36:56.874Z,11.00
2023-11-30T01:39:23.565Z,10.93
2023-11-30T01:41:50.498Z,10.20
2023-11-30T01:44:17.119Z,11.07
2023-11-30T01:46:43.892Z,10.60
2023-11-30T01:49:10.709Z,9.77
2023-11-30T01:51:37.879Z,10.30
2023-11-30T01:54:07.406Z,10.50
2023-11-30T01:56:35.947Z,10.60
2023-11-30T01:59:04.282Z,10.97
2023-11-30T02:01:31.837Z,10.73
2023-11-30T02:04:03.355Z,10.50
2023-11-30T02:06:30.016Z,10.83
2023-11-30T02:08:56.715Z,10.50
2023-11-30T02:11:23.548Z,10.13
2023-11-30T02:13:50.900Z,10.53
2023-11-30T02:16:17.740Z,10.30
2023-11-30T02:18:44.385Z,10.90
2023-11-30T02:21:11.218Z,10.80
2023-11-30T02:23:38.099Z,10.23
2023-11-30T02:26:04.903Z,11.47
2023-11-30T02:28:31.768Z,11.03
2023-11-30T02:30:58.367Z,11.10
2023-11-30T02:33:25.084Z,11.33
2023-11-30T02:35:51.993Z,9.93
2023-11-30T02:38:18.627Z,11.33
2023-11-30T02:40:46.314Z,10.83
2023-11-30T02:43:12.944Z,10.93
2023-11-30T02:45:39.744Z,11.50
2023-11-30T02:48:06.712Z,10.93
2023-11-30T02:50:33.633Z,11.33
2023-11-30T02:53:01.205Z,11.10
2023-11-30T02:55:27.863Z,11.73
2023-11-30T02:57:54.510Z,11.20
2023-11-30T03:00:21.384Z,11.30
2023-11-30T03:02:48.289Z,11.70
2023-11-30T03:05:14.958Z,12.00
2023-11-30T03:07:41.579Z,12.03
2023-11-30T03:10:08.844Z,11.57
2023-11-30T03:12:35.818Z,11.47
2023-11-30T03:15:02.651Z,11.30
2023-11-30T03:17:29.427Z,11.97
2023-11-30T03:19:56.399Z,11.70
2023-11-30T03:22:23.018Z,12.17
2023-11-30T03:24:49.920Z,11.80
2023-11-30T03:27:16.540Z,12.53
2023-11-30T03:29:43.311Z,11.43
2023-11-30T03:32:10.239Z,10.83
2023-11-30T03:34:36.927Z,11.43
2023-11-30T03:37:04.140Z,11.07
2023-11-30T03:39:30.812Z,12.33
2023-11-30T03:41:57.479Z,11.83
2023-11-30T03:44:24.338Z,12.13
2023-11-30T03:46:50.961Z,12.17
2023-11-30T03:49:17.882Z,12.13
2023-11-30T03:51:44.477Z,11.83
2023-11-30T03:54:11.127Z,12.30
2023-11-30T03:56:38.054Z,12.33
2023-11-30T03:59:04.961Z,12.30
2023-11-30T04:01:31.929Z,12.37
2023-11-30T04:03:58.651Z,13.10
2023-11-30T04:06:25.292Z,12.87
2023-11-30T04:08:52.621Z,13.07
2023-11-30T04:11:19.599Z,12.50
2023-11-30T04:13:48.718Z,13.37
2023-11-30T04:16:16.414Z,14.07
2023-11-30T04:18:43.509Z,13.97
2023-11-30T04:21:10.932Z,15.03
2023-11-30T04:23:37.778Z,13.57
2023-11-30T04:26:04.524Z,15.73
2023-11-30T04:28:31.599Z,14.13
2023-11-30T04:30:58.406Z,13.27
2023-11-30T04:33:25.472Z,14.57
2023-11-30T04:35:52.199Z,15.57
2023-11-30T04:38:19.913Z,14.47
2023-11-30T04:40:46.782Z,15.50
2023-11-30T04:43:13.770Z,15.17
2023-11-30T04:45:40.455Z,15.33
2023-11-30T04:48:07.208Z,16.57
2023-11-30T04:50:33.910Z,15.53
2023-11-30T04:53:00.840Z,20.70
2023-11-30T04:55:27.927Z,48.30
2023-11-30T04:57:55.007Z,29.03
2023-11-30T05:00:21.719Z,20.07
2023-11-30T05:02:57.170Z,16.87
2023-11-30T05:05:24.292Z,16.17
2023-11-30T05:07:50.970Z,15.37
2023-11-30T05:10:17.927Z,16.43
2023-11-30T05:12:44.789Z,16.47
2023-11-30T05:15:11.748Z,16.43
2023-11-30T05:17:38.484Z,15.77
2023-11-30T05:20:05.891Z,35.00
2023-11-30T05:22:32.656Z,40.50
2023-11-30T05:24:59.316Z,53.53
2023-11-30T05:27:26.043Z,42.43
2023-11-30T05:29:52.707Z,25.10
2023-11-30T05:32:19.478Z,18.63
2023-11-30T05:34:46.494Z,17.47
2023-11-30T05:37:13.096Z,16.43
2023-11-30T05:39:40.120Z,16.33
2023-11-30T05:42:06.814Z,16.50
2023-11-30T05:44:33.529Z,16.90
2023-11-30T05:47:00.354Z,16.23
2023-11-30T05:49:27.382Z,16.97
2023-11-30T05:51:54.315Z,14.70
2023-11-30T05:54:21.034Z,15.43
2023-11-30T05:56:47.762Z,15.90
2023-11-30T05:59:15.041Z,15.70
2023-11-30T06:01:41.931Z,15.63
2023-11-30T06:04:08.938Z,15.77
2023-11-30T06:06:35.783Z,16.60
2023-11-30T06:09:02.931Z,16.17
2023-11-30T06:11:29.854Z,15.90
2023-11-30T06:13:57.047Z,15.50
2023-11-30T06:16:24.359Z,16.73
2023-11-30T06:18:51.005Z,15.60
2023-11-30T06:21:18.070Z,14.83
2023-11-30T06:23:45.229Z,15.93
2023-11-30T06:26:12.059Z,15.67
2023-11-30T06:28:38.770Z,16.07
2023-11-30T06:31:05.686Z,15.93
2023-11-30T06:33:32.726Z,20.87
2023-11-30T06:35:59.445Z,35.33
2023-11-30T06:38:26.076Z,51.97
2023-11-30T06:40:52.984Z,53.67
2023-11-30T06:43:19.577Z,38.30
2023-11-30T06:45:46.466Z,25.17
2023-11-30T06:48:13.182Z,20.37
2023-11-30T06:50:40.116Z,17.40
2023-11-30T06:53:06.704Z,16.33
2023-11-30T06:55:33.399Z,16.50
2023-11-30T06:58:00.541Z,15.70
2023-11-30T07:00:28.282Z,16.33
2023-11-30T07:02:58.327Z,16.07
2023-11-30T07:05:25.633Z,16.27
2023-11-30T07:07:52.332Z,15.53
2023-11-30T07:10:18.951Z,17.10
2023-11-30T07:12:46.984Z,16.33
2023-11-30T07:15:13.992Z,16.67
2023-11-30T07:17:40.922Z,16.77
2023-11-30T07:20:08.743Z,16.27
2023-11-30T07:22:36.279Z,16.43
2023-11-30T07:25:03.040Z,15.37
2023-11-30T07:27:30.023Z,16.60
2023-11-30T07:29:56.852Z,16.47
2023-11-30T07:32:23.618Z,15.90
2023-11-30T07:34:50.500Z,16.27
2023-11-30T07:37:19.447Z,16.47
2023-11-30T07:39:46.462Z,31.33
2023-11-30T07:42:26.036Z,31.20
2023-11-30T07:44:59.710Z,24.20
2023-11-30T07:47:26.384Z,20.00
2023-11-30T07:49:52.983Z,18.20
2023-11-30T07:52:19.586Z,22.43
2023-11-30T07:54:46.499Z,37.53
2023-11-30T07:57:14.700Z,41.70
2023-11-30T07:59:41.285Z,37.10
2023-11-30T08:02:09.359Z,40.23
2023-11-30T08:04:39.853Z,31.13
2023-11-30T08:07:06.628Z,22.10
2023-11-30T08:09:33.606Z,18.63
2023-11-30T08:12:00.272Z,16.90
2023-11-30T08:14:26.892Z,16.37
2023-11-30T08:16:53.923Z,16.43
2023-11-30T08:19:20.573Z,17.57
2023-11-30T08:21:48.806Z,16.80
2023-11-30T08:24:15.688Z,16.37
2023-11-30T08:26:43.304Z,16.20
2023-11-30T08:31:38.635Z,16.93
2023-11-30T08:34:05.827Z,17.63
2023-11-30T08:36:32.473Z,16.40
2023-11-30T08:38:59.166Z,17.00
2023-11-30T08:41:26.130Z,18.40
2023-11-30T08:43:52.729Z,16.90
2023-11-30T08:46:19.790Z,17.03
2023-11-30T08:48:46.650Z,18.10
2023-11-30T08:51:13.440Z,18.23
2023-11-30T08:53:40.335Z,16.17
2023-11-30T08:56:07.565Z,17.53
2023-11-30T08:58:34.753Z,18.07
2023-11-30T09:01:01.341Z,19.03
2023-11-30T09:03:28.152Z,18.83
2023-11-30T09:05:54.938Z,19.43
2023-11-30T09:08:21.669Z,19.10
2023-11-30T09:10:48.873Z,19.17
2023-11-30T09:13:15.468Z,19.23
2023-11-30T09:15:42.388Z,19.70
2023-11-30T09:18:11.789Z,19.63
2023-11-30T09:20:38.842Z,19.90
2023-11-30T09:23:07.658Z,20.00
2023-11-30T09:25:34.579Z,20.30
2023-11-30T09:28:01.273Z,20.57
2023-11-30T09:30:28.025Z,21.00
2023-11-30T09:32:54.882Z,19.37
2023-11-30T09:35:21.575Z,20.20
2023-11-30T09:40:18.834Z,20.80
2023-11-30T09:42:47.183Z,21.83
2023-11-30T09:45:14.869Z,20.50
2023-11-30T09:47:41.578Z,20.67
2023-11-30T09:50:09.008Z,20.93
2023-11-30T09:52:38.573Z,21.13
2023-11-30T09:55:06.978Z,20.17
2023-11-30T09:57:33.767Z,19.47
2023-11-30T10:00:00.481Z,20.17
2023-11-30T10:02:29.622Z,19.30
2023-11-30T10:04:58.183Z,19.83
2023-11-30T10:07:25.521Z,19.33
2023-11-30T10:09:52.146Z,19.10
2023-11-30T10:12:21.569Z,19.43
2023-11-30T10:14:48.385Z,20.07
2023-11-30T10:17:15.121Z,19.73
2023-11-30T10:19:44.962Z,19.97
2023-11-30T10:22:11.621Z,19.20
2023-11-30T10:27:11.845Z,20.10
2023-11-30T10:29:43.364Z,19.50
2023-11-30T10:32:14.515Z,19.20
2023-11-30T10:34:50.737Z,18.80
2023-11-30T10:37:20.866Z,19.70
2023-11-30T10:40:02.178Z,18.63
2023-11-30T10:42:29.344Z,19.23
2023-11-30T10:44:59.775Z,17.70
2023-11-30T10:47:29.638Z,17.53
2023-11-30T10:50:02.394Z,17.37
2023-11-30T10:52:30.921Z,17.87
2023-11-30T10:55:05.501Z,16.40
2023-11-30T10:57:33.178Z,15.93
2023-11-30T11:00:00.413Z,15.07
2023-11-30T11:02:38.626Z,14.57
2023-11-30T11:05:10.007Z,15.00
2023-11-30T11:07:36.776Z,14.53
2023-11-30T11:10:07.686Z,14.90
2023-11-30T11:12:39.276Z,14.93
2023-11-30T11:15:16.938Z,14.37
2023-11-30T11:20:28.070Z,13.07
2023-11-30T11:23:11.051Z,13.20
2023-11-30T11:25:42.276Z,11.93
2023-11-30T11:28:09.250Z,11.97
2023-11-30T11:30:48.556Z,12.00
2023-11-30T11:33:22.322Z,11.53
2023-11-30T11:35:49.192Z,11.13
2023-11-30T11:38:15.857Z,10.47
2023-11-30T11:40:43.257Z,10.23
2023-11-30T11:43:10.298Z,12.10
2023-11-30T11:45:38.522Z,13.60
2023-11-30T11:48:05.547Z,13.00
2023-11-30T11:50:32.242Z,11.97
2023-11-30T11:53:04.954Z,11.93
2023-11-30T11:55:31.905Z,11.27
2023-11-30T11:57:58.958Z,10.47
2023-11-30T12:00:27.256Z,11.30
2023-11-30T12:03:08.619Z,11.03
2023-11-30T12:05:46.252Z,10.60
2023-11-30T12:08:12.885Z,9.90
2023-11-30T12:10:50.662Z,10.23
2023-11-30T12:13:17.700Z,9.37
2023-11-30T12:15:46.814Z,10.00
2023-11-30T12:18:13.937Z,10.40
2023-11-30T12:20:40.851Z,10.23
2023-11-30T12:23:07.897Z,10.30
2023-11-30T12:25:34.546Z,10.87
2023-11-30T12:28:01.588Z,15.73
2023-11-30T12:30:28.196Z,25.10
2023-11-30T12:32:55.208Z,19.03
2023-11-30T12:35:21.928Z,16.27
2023-11-30T12:37:49.908Z,12.00
2023-11-30T12:40:16.711Z,10.60
2023-11-30T12:42:45.020Z,9.47
2023-11-30T12:45:11.908Z,17.07
2023-11-30T12:47:42.774Z,13.43
2023-11-30T12:50:12.962Z,11.30
2023-11-30T12:52:39.936Z,10.97
2023-11-30T12:55:07.856Z,9.83
2023-11-30T12:57:40.221Z,10.33
2023-11-30T13:00:16.316Z,10.40
2023-11-30T13:02:47.209Z,10.90
2023-11-30T13:05:15.286Z,10.17
2023-11-30T13:07:42.366Z,10.77
2023-11-30T13:10:11.861Z,10.77
2023-11-30T13:12:39.509Z,10.40
2023-11-30T13:15:08.036Z,10.40
2023-11-30T13:17:35.024Z,11.00
2023-11-30T13:22:30.840Z,10.57
2023-11-30T13:24:59.501Z,10.37
2023-11-30T13:27:26.945Z,9.80
2023-11-30T13:29:53.664Z,9.77
2023-11-30T13:32:20.365Z,9.97
2023-11-30T13:34:46.959Z,9.30
2023-11-30T13:37:13.703Z,9.57
2023-11-30T13:39:40.569Z,9.90
2023-11-30T13:42:07.288Z,9.87
2023-11-30T13:44:33.940Z,10.83
2023-11-30T13:47:00.847Z,9.87
2023-11-30T13:49:28.214Z,10.27
2023-11-30T13:51:56.342Z,10.10
2023-11-30T13:54:24.975Z,10.00
2023-11-30T13:56:51.861Z,9.87
2023-11-30T13:59:18.462Z,10.53
2023-11-30T14:01:45.223Z,9.33
2023-11-30T14:04:12.949Z,9.17
2023-11-30T14:06:40.502Z,9.83
2023-11-30T14:11:41.995Z,9.87
2023-11-30T14:14:08.856Z,9.83
2023-11-30T14:16:35.643Z,11.20
2023-11-30T14:19:02.848Z,11.60
2023-11-30T14:21:29.517Z,12.80
2023-11-30T14:23:56.103Z,13.10
2023-11-30T14:26:22.807Z,13.57
2023-11-30T14:28:49.880Z,12.43
2023-11-30T14:31:19.852Z,14.23
2023-11-30T14:33:46.918Z,17.10
2023-11-30T14:36:14.093Z,17.33
2023-11-30T14:38:42.182Z,19.77
2023-11-30T14:41:09.248Z,18.90
2023-11-30T14:43:36.287Z,19.47
2023-11-30T14:46:03.454Z,19.63
2023-11-30T14:48:30.217Z,20.03
2023-11-30T14:53:25.747Z,19.70
2023-11-30T14:55:52.673Z,20.50
2023-11-30T14:58:21.121Z,20.73
2023-11-30T15:00:49.047Z,20.30
2023-11-30T15:03:16.963Z,21.50
2023-11-30T15:05:43.718Z,21.47
2023-11-30T15:08:10.964Z,24.13
2023-11-30T15:10:40.165Z,22.07
2023-11-30T15:13:07.145Z,24.17
2023-11-30T15:15:33.796Z,24.20
2023-11-30T15:18:00.498Z,24.40
2023-11-30T15:22:55.731Z,22.50
2023-11-30T15:25:22.418Z,24.20
2023-11-30T15:27:50.363Z,22.93
2023-11-30T15:30:17.578Z,24.07
2023-11-30T15:32:44.527Z,25.83
2023-11-30T15:35:11.614Z,25.80
2023-11-30T15:37:38.400Z,27.43
2023-11-30T15:40:10.276Z,25.93
2023-11-30T15:42:38.315Z,25.97
2023-11-30T15:45:11.711Z,25.77
2023-11-30T15:47:40.391Z,27.67
2023-11-30T15:50:07.865Z,27.40
2023-11-30T15:52:34.650Z,27.83
2023-11-30T15:55:01.334Z,27.73
2023-11-30T15:57:28.207Z,26.03
2023-11-30T15:59:54.940Z,27.27
2023-11-30T16:02:22.006Z,25.70
2023-11-30T16:04:48.716Z,27.27
2023-11-30T16:07:15.442Z,26.50
2023-11-30T16:09:42.099Z,25.37
2023-11-30T16:12:09.253Z,26.03
2023-11-30T16:14:36.222Z,25.63
2023-11-30T16:17:03.308Z,27.67
2023-11-30T16:19:30.216Z,23.63
2023-11-30T16:21:58.574Z,25.07
2023-11-30T16:24:25.452Z,25.67
2023-11-30T16:26:55.943Z,24.13
2023-11-30T16:29:23.526Z,25.23
2023-11-30T16:31:52.458Z,32.37
2023-11-30T16:34:20.890Z,33.47
2023-11-30T16:36:48.688Z,27.43
2023-11-30T16:39:15.921Z,24.30
2023-11-30T16:41:43.790Z,25.03
2023-11-30T16:44:10.700Z,24.97
2023-11-30T16:46:37.620Z,23.57
2023-11-30T16:49:04.480Z,23.87
2023-11-30T16:51:31.172Z,25.20
2023-11-30T16:53:57.977Z,24.53
2023-11-30T16:56:26.124Z,24.73
2023-11-30T16:58:53.796Z,24.70
2023-11-30T17:01:21.409Z,26.27
2023-11-30T17:03:48.901Z,26.57
2023-11-30T17:06:15.976Z,24.47
2023-11-30T17:08:43.295Z,27.57
2023-11-30T17:11:10.003Z,28.10
2023-11-30T17:13:36.624Z,26.97
2023-11-30T17:16:06.341Z,28.73
2023-11-30T17:18:35.196Z,30.87
2023-11-30T17:21:02.149Z,29.40
2023-11-30T17:23:28.751Z,30.10
2023-11-30T17:25:55.349Z,29.97
2023-11-30T17:28:21.975Z,31.47
2023-11-30T17:30:48.679Z,30.83
2023-11-30T17:33:15.650Z,30.33
2023-11-30T17:35:42.477Z,30.13
2023-11-30T17:38:09.264Z,30.07
2023-11-30T17:40:35.933Z,31.67
2023-11-30T17:43:02.557Z,34.00
2023-11-30T17:45:29.958Z,31.60
2023-11-30T17:47:57.110Z,32.90
2023-11-30T17:50:24.566Z,29.83
2023-11-30T17:52:52.708Z,31.47
2023-11-30T17:55:20.446Z,32.80
2023-11-30T17:57:47.186Z,43.63
2023-11-30T18:00:14.397Z,35.23
2023-11-30T18:02:41.135Z,33.07
2023-11-30T18:05:08.178Z,29.90
2023-11-30T18:07:34.818Z,31.40
2023-11-30T18:10:01.983Z,31.50
2023-11-30T18:12:28.962Z,32.70
2023-11-30T18:14:55.586Z,30.77
2023-11-30T18:17:22.206Z,32.03
2023-11-30T18:19:48.928Z,32.43
2023-11-30T18:22:15.520Z,30.10
2023-11-30T18:24:42.631Z,29.73
2023-11-30T18:27:09.386Z,27.87
2023-11-30T18:29:36.371Z,25.43
2023-11-30T18:32:04.206Z,27.27
2023-11-30T18:34:30.981Z,25.80
2023-11-30T18:36:57.894Z,27.30
2023-11-30T18:39:24.998Z,25.47
2023-11-30T18:41:52.641Z,26.67
2023-11-30T18:44:19.323Z,25.93
2023-11-30T18:46:46.022Z,24.40
2023-11-30T18:49:12.775Z,24.10
2023-11-30T18:51:39.787Z,24.90
2023-11-30T18:54:06.585Z,25.10
2023-11-30T18:56:33.325Z,25.00
2023-11-30T18:59:00.666Z,24.83
2023-11-30T19:01:28.509Z,25.57
2023-11-30T19:06:25.992Z,25.73
2023-11-30T19:08:53.821Z,25.27
2023-11-30T19:11:23.099Z,26.13
2023-11-30T19:16:22.113Z,24.60
2023-11-30T19:18:50.437Z,24.40
2023-11-30T19:21:18.522Z,24.33
2023-11-30T19:23:46.740Z,24.87
2023-11-30T19:26:14.498Z,24.47
2023-11-30T19:28:41.453Z,23.53
2023-11-30T19:31:08.554Z,24.47
2023-11-30T19:33:35.633Z,23.93
2023-11-30T19:36:02.303Z,24.33
2023-11-30T19:38:29.690Z,25.20
2023-11-30T19:40:57.498Z,24.63
2023-11-30T19:43:27.741Z,25.70
2023-11-30T19:45:55.469Z,27.37
2023-11-30T19:48:22.845Z,25.53
2023-11-30T19:50:49.530Z,25.87
2023-11-30T19:53:16.877Z,25.37
2023-11-30T19:55:48.022Z,26.00
2023-11-30T19:58:18.241Z,26.37
2023-11-30T20:00:45.571Z,25.50
2023-11-30T20:03:12.547Z,26.10
2023-11-30T20:08:07.921Z,25.87
2023-11-30T20:10:34.680Z,26.30
2023-11-30T20:13:02.355Z,26.47
2023-11-30T20:15:31.115Z,24.67
2023-11-30T20:17:58.183Z,26.57
2023-11-30T20:20:25.353Z,26.50
2023-11-30T20:22:51.952Z,25.90
2023-11-30T20:27:47.959Z,25.53
2023-11-30T20:30:14.839Z,25.17
2023-11-30T20:35:11.862Z,27.00
2023-11-30T20:37:38.502Z,26.23
2023-11-30T20:40:05.694Z,27.73
2023-11-30T20:42:32.620Z,26.27
2023-11-30T20:44:59.854Z,26.93
2023-11-30T20:47:26.491Z,27.23
2023-11-30T20:49:53.443Z,28.57
2023-11-30T20:52:20.455Z,28.60
2023-11-30T20:54:47.205Z,26.53
2023-11-30T20:57:16.737Z,26.80
2023-11-30T20:59:45.626Z,29.50
2023-11-30T21:02:14.585Z,28.87
2023-11-30T21:04:41.337Z,28.80
2023-11-30T21:07:08.533Z,29.30
2023-11-30T21:09:36.808Z,30.20
2023-11-30T21:12:03.892Z,29.87
2023-11-30T21:14:30.820Z,29.53
2023-11-30T21:16:57.474Z,28.47
2023-11-30T21:19:24.515Z,27.23
2023-11-30T21:21:51.157Z,28.53
2023-11-30T21:24:18.003Z,28.03
2023-11-30T21:26:44.906Z,29.30
2023-11-30T21:29:11.905Z,28.37
2023-11-30T21:31:41.574Z,27.83
2023-11-30T21:34:08.264Z,26.33
2023-11-30T21:36:35.540Z,26.17
2023-11-30T21:39:02.163Z,26.13
2023-11-30T21:41:29.047Z,25.30
2023-11-30T21:43:55.888Z,25.47
2023-11-30T21:46:22.801Z,26.50
2023-11-30T21:48:49.572Z,26.33
2023-11-30T21:51:16.250Z,24.97
2023-11-30T21:53:42.832Z,27.77
2023-11-30T21:58:40.331Z,27.93
2023-11-30T22:01:11.531Z,27.00
2023-11-30T22:03:39.247Z,27.53
2023-11-30T22:06:06.551Z,27.97
2023-11-30T22:08:33.909Z,27.77
2023-11-30T22:11:00.906Z,26.10
2023-11-30T22:13:28.382Z,26.17
2023-11-30T22:16:00.090Z,26.97
2023-11-30T22:18:37.784Z,26.43
2023-11-30T22:21:08.098Z,28.60
2023-11-30T22:23:35.872Z,26.57
2023-11-30T22:26:04.549Z,28.33
2023-11-30T22:28:32.547Z,25.03
2023-11-30T22:31:00.383Z,26.70
2023-11-30T22:33:28.382Z,26.70
2023-11-30T22:35:57.923Z,27.90
2023-11-30T22:38:26.933Z,26.90
2023-11-30T22:40:54.970Z,27.77
2023-11-30T22:43:24.234Z,26.03
2023-11-30T22:45:51.198Z,27.23
2023-11-30T22:48:18.616Z,26.30
2023-11-30T22:50:45.558Z,26.73
2023-11-30T22:53:13.948Z,28.87
2023-11-30T22:55:41.059Z,27.93
2023-11-30T22:58:08.128Z,27.67
2023-11-30T23:00:35.966Z,26.27
2023-11-30T23:03:04.128Z,27.03
2023-11-30T23:05:31.841Z,27.10
2023-11-30T23:07:59.193Z,26.03
2023-11-30T23:10:26.172Z,27.93
2023-11-30T23:12:54.254Z,26.37
2023-11-30T23:15:21.227Z,26.67
2023-11-30T23:17:48.114Z,26.23
2023-11-30T23:20:15.150Z,26.23
2023-11-30T23:22:42.022Z,25.47
2023-11-30T23:25:09.947Z,25.47
2023-11-30T23:27:37.428Z,24.77
2023-11-30T23:30:05.195Z,24.83
2023-11-30T23:32:32.131Z,26.57
2023-11-30T23:34:59.041Z,27.47
2023-11-30T23:37:26.398Z,26.13
2023-11-30T23:39:53.277Z,28.50
2023-11-30T23:42:20.315Z,26.23
2023-11-30T23:44:47.890Z,25.27
2023-11-30T23:47:15.372Z,25.97
2023-11-30T23:49:42.071Z,25.50
2023-11-30T23:52:08.750Z,25.67
2023-11-30T23:54:35.822Z,25.33
2023-11-30T23:57:02.511Z,25.67
2023-11-30T23:59:29.397Z,26.77
